createdAt,value
2022-10-26T00:01:04.944Z,3.00
2022-10-26T00:03:32.160Z,3.00
2022-10-26T00:06:10.150Z,3.00
2022-10-26T00:08:37.191Z,3.00
2022-10-26T00:11:04.232Z,3.90
2022-10-26T00:13:31.018Z,3.90
2022-10-26T00:16:01.601Z,3.70
2022-10-26T00:18:28.597Z,3.70
2022-10-26T00:20:55.539Z,3.30
2022-10-26T00:23:23.205Z,3.20
2022-10-26T00:25:56.525Z,3.50
2022-10-26T00:28:24.045Z,3.60
2022-10-26T00:30:51.233Z,3.30
2022-10-26T00:33:18.172Z,4.30
2022-10-26T00:35:53.193Z,4.00
2022-10-26T00:38:20.531Z,4.10
2022-10-26T00:40:48.538Z,4.30
2022-10-26T00:43:21.697Z,3.50
2022-10-26T00:45:49.806Z,3.20
2022-10-26T00:48:22.206Z,3.40
2022-10-26T00:50:48.962Z,3.70
2022-10-26T00:53:15.757Z,4.00
2022-10-26T00:55:46.125Z,4.30
2022-10-26T00:58:13.121Z,4.80
2022-10-26T01:00:41.165Z,4.20
2022-10-26T01:03:08.659Z,4.80
2022-10-26T01:05:38.570Z,3.90
2022-10-26T01:08:06.404Z,3.40
2022-10-26T01:10:33.294Z,3.20
2022-10-26T01:13:05.396Z,4.00
2022-10-26T01:15:41.903Z,3.60
2022-10-26T01:18:20.064Z,4.30
2022-10-26T01:21:09.270Z,4.10
2022-10-26T01:23:48.327Z,4.10
2022-10-26T01:26:24.031Z,4.60
2022-10-26T01:28:57.465Z,3.60
2022-10-26T01:31:29.014Z,3.70
2022-10-26T01:34:08.383Z,3.60
2022-10-26T01:36:43.333Z,3.80
2022-10-26T01:39:21.958Z,3.90
2022-10-26T01:41:51.246Z,3.80
2022-10-26T01:44:41.895Z,4.00
2022-10-26T01:47:10.948Z,4.30
2022-10-26T01:49:41.602Z,3.00
2022-10-26T01:52:10.504Z,3.30
2022-10-26T01:57:10.565Z,3.50
2022-10-26T01:59:42.455Z,4.10
2022-10-26T02:02:29.253Z,3.50
2022-10-26T02:05:32.399Z,4.10
2022-10-26T02:08:08.412Z,3.70
2022-10-26T02:11:09.637Z,2.50
2022-10-26T02:13:48.017Z,3.50
2022-10-26T02:16:50.448Z,2.90
2022-10-26T02:19:44.427Z,3.40
2022-10-26T02:22:27.888Z,3.50
2022-10-26T02:24:55.020Z,3.10
2022-10-26T02:27:25.090Z,3.70
2022-10-26T02:29:54.050Z,3.20
2022-10-26T02:32:20.824Z,2.20
2022-10-26T02:34:49.300Z,2.50
2022-10-26T02:37:16.545Z,3.00
2022-10-26T02:39:43.359Z,3.00
2022-10-26T02:42:11.192Z,3.10
2022-10-26T02:44:48.754Z,3.20
2022-10-26T02:47:15.569Z,3.40
2022-10-26T02:49:42.707Z,3.40
2022-10-26T02:52:32.033Z,3.50
2022-10-26T02:55:35.374Z,2.70
2022-10-26T02:58:04.659Z,3.20
2022-10-26T03:00:34.272Z,2.50
2022-10-26T03:03:03.620Z,2.80
2022-10-26T03:05:36.944Z,2.90
2022-10-26T03:08:03.808Z,3.00
2022-10-26T03:10:30.784Z,3.10
2022-10-26T03:12:59.060Z,3.30
2022-10-26T03:15:26.286Z,3.20
2022-10-26T03:17:53.021Z,3.20
2022-10-26T03:20:20.036Z,2.70
2022-10-26T03:22:48.082Z,2.50
2022-10-26T03:25:16.843Z,2.90
2022-10-26T03:27:43.752Z,3.30
2022-10-26T03:30:11.119Z,3.60
2022-10-26T03:32:38.387Z,3.00
2022-10-26T03:35:05.655Z,3.30
2022-10-26T03:37:32.821Z,3.20
2022-10-26T03:40:00.952Z,2.50
2022-10-26T03:42:28.427Z,2.80
2022-10-26T03:44:56.988Z,2.40
2022-10-26T03:47:23.744Z,2.50
2022-10-26T03:49:51.338Z,3.00
2022-10-26T03:52:18.131Z,3.30
2022-10-26T03:54:45.320Z,3.40
2022-10-26T03:57:12.263Z,3.00
2022-10-26T03:59:39.221Z,2.60
2022-10-26T04:02:06.201Z,2.40
2022-10-26T04:04:34.755Z,2.80
2022-10-26T04:07:01.734Z,2.70
2022-10-26T04:09:28.587Z,3.20
2022-10-26T04:11:55.651Z,2.60
2022-10-26T04:14:22.563Z,3.00
2022-10-26T04:16:49.332Z,3.20
2022-10-26T04:19:16.239Z,2.90
2022-10-26T04:21:44.477Z,3.10
2022-10-26T04:24:12.077Z,2.40
2022-10-26T04:26:40.048Z,2.50
2022-10-26T04:29:07.660Z,2.70
2022-10-26T04:31:34.661Z,3.00
2022-10-26T04:34:01.937Z,3.60
2022-10-26T04:36:30.499Z,3.10
2022-10-26T04:38:58.566Z,3.10
2022-10-26T04:41:25.447Z,3.70
2022-10-26T04:43:52.285Z,3.30
2022-10-26T04:46:19.127Z,2.50
2022-10-26T04:48:48.262Z,2.70
2022-10-26T04:51:15.191Z,2.50
2022-10-26T04:53:41.940Z,3.00
2022-10-26T04:56:09.368Z,3.00
2022-10-26T04:58:36.247Z,3.00
2022-10-26T05:01:03.315Z,3.30
2022-10-26T05:03:30.367Z,3.70
2022-10-26T05:06:00.509Z,2.40
2022-10-26T05:08:27.756Z,2.70
2022-10-26T05:10:55.338Z,2.60
2022-10-26T05:13:23.097Z,3.10
2022-10-26T05:15:53.403Z,2.70
2022-10-26T05:18:21.948Z,3.50
2022-10-26T05:20:50.288Z,3.80
2022-10-26T05:23:18.732Z,3.50
2022-10-26T05:25:47.475Z,2.30
2022-10-26T05:28:14.937Z,2.80
2022-10-26T05:30:44.485Z,2.90
2022-10-26T05:33:11.921Z,3.30
2022-10-26T05:35:39.285Z,2.70
2022-10-26T05:38:18.258Z,3.30
2022-10-26T05:40:49.203Z,3.30
2022-10-26T05:43:16.141Z,3.40
2022-10-26T05:45:44.086Z,2.40
2022-10-26T05:48:11.098Z,2.90
2022-10-26T05:50:38.000Z,2.50
2022-10-26T05:53:05.218Z,2.70
2022-10-26T05:55:32.490Z,2.70
2022-10-26T05:58:16.666Z,2.80
2022-10-26T06:01:11.609Z,2.90
2022-10-26T06:03:42.749Z,2.80
2022-10-26T06:06:11.253Z,2.20
2022-10-26T06:08:39.083Z,2.40
2022-10-26T06:11:07.864Z,2.50
2022-10-26T06:13:35.176Z,2.80
2022-10-26T06:16:08.190Z,3.10
2022-10-26T06:18:47.899Z,2.80
2022-10-26T06:21:14.806Z,3.00
2022-10-26T06:23:57.303Z,2.90
2022-10-26T06:26:46.352Z,2.30
2022-10-26T06:29:19.375Z,2.20
2022-10-26T06:31:46.279Z,2.20
2022-10-26T06:34:15.871Z,2.30
2022-10-26T06:36:42.786Z,2.40
2022-10-26T06:39:12.049Z,2.30
2022-10-26T06:41:39.230Z,2.50
2022-10-26T06:44:06.279Z,2.60
2022-10-26T06:46:41.342Z,2.60
2022-10-26T06:49:18.297Z,1.90
2022-10-26T06:52:00.592Z,1.90
2022-10-26T06:54:52.239Z,2.00
2022-10-26T06:57:20.460Z,2.00
2022-10-26T06:59:50.813Z,2.40
2022-10-26T07:02:18.018Z,2.30
2022-10-26T07:04:45.265Z,1.80
2022-10-26T07:07:13.894Z,2.60
2022-10-26T07:09:40.782Z,1.90
2022-10-26T07:12:07.927Z,2.30
2022-10-26T07:14:37.324Z,2.40
2022-10-26T07:17:04.890Z,2.20
2022-10-26T07:19:32.330Z,2.70
2022-10-26T07:22:00.272Z,3.10
2022-10-26T07:24:30.253Z,3.00
2022-10-26T07:26:57.846Z,3.10
2022-10-26T07:29:26.247Z,3.20
2022-10-26T07:34:21.290Z,2.80
2022-10-26T07:36:48.057Z,2.70
2022-10-26T07:39:14.792Z,2.40
2022-10-26T07:41:41.728Z,2.40
2022-10-26T07:44:09.010Z,3.20
2022-10-26T07:46:36.072Z,3.30
2022-10-26T07:49:03.257Z,3.10
2022-10-26T07:51:30.731Z,2.80
2022-10-26T07:53:57.523Z,2.40
2022-10-26T07:56:24.533Z,3.20
2022-10-26T07:58:53.216Z,2.70
2022-10-26T08:01:20.539Z,2.80
2022-10-26T08:03:47.856Z,2.80
2022-10-26T08:06:15.514Z,2.80
2022-10-26T08:08:45.030Z,3.40
2022-10-26T08:11:16.278Z,3.50
2022-10-26T08:13:43.414Z,3.80
2022-10-26T08:16:14.178Z,2.50
2022-10-26T08:18:41.339Z,2.50
2022-10-26T08:21:11.586Z,2.70
2022-10-26T08:23:40.606Z,2.80
2022-10-26T08:26:07.650Z,3.10
2022-10-26T08:28:34.462Z,3.40
2022-10-26T08:31:01.216Z,3.50
2022-10-26T08:33:28.186Z,3.00
2022-10-26T08:36:01.680Z,3.40
2022-10-26T08:38:28.842Z,2.40
2022-10-26T08:40:57.258Z,2.60
2022-10-26T08:43:26.758Z,2.70
2022-10-26T08:45:53.662Z,2.90
2022-10-26T13:22:21.143Z,2.80
2022-10-26T13:24:55.741Z,1.50
2022-10-26T13:27:23.601Z,1.70
2022-10-26T13:30:09.433Z,1.80
2022-10-26T13:32:40.226Z,2.00
2022-10-26T13:35:13.422Z,1.80
2022-10-26T13:37:46.263Z,1.70
2022-10-26T13:40:19.588Z,2.40
2022-10-26T13:42:53.459Z,1.40
2022-10-26T13:45:21.455Z,1.60
2022-10-26T13:47:56.765Z,2.00
2022-10-26T13:50:27.654Z,1.80
2022-10-26T13:53:00.124Z,1.90
2022-10-26T13:55:32.670Z,2.50
2022-10-26T13:58:18.122Z,2.30
2022-10-26T14:01:11.948Z,3.00
2022-10-26T14:03:39.202Z,1.90
2022-10-26T14:06:36.752Z,1.90
2022-10-26T14:09:12.470Z,2.20
2022-10-26T14:11:50.012Z,2.30
2022-10-26T14:14:22.052Z,2.50
2022-10-26T14:16:50.378Z,2.90
2022-10-26T14:19:28.332Z,2.80
2022-10-26T14:21:55.593Z,2.70
2022-10-26T14:24:45.283Z,2.50
2022-10-26T14:27:17.820Z,1.60
2022-10-26T14:29:49.792Z,1.80
2022-10-26T14:32:30.364Z,1.80
2022-10-26T14:34:57.202Z,1.40
2022-10-26T14:37:36.742Z,1.60
2022-10-26T14:40:04.983Z,1.50
2022-10-26T14:42:33.325Z,1.80
2022-10-26T14:45:00.415Z,2.00
2022-10-26T14:47:29.123Z,1.70
2022-10-26T14:49:56.825Z,1.40
2022-10-26T14:52:34.957Z,1.40
2022-10-26T14:55:13.566Z,1.20
2022-10-26T14:57:45.294Z,1.60
2022-10-26T15:00:13.341Z,1.50
2022-10-26T15:02:40.276Z,1.50
2022-10-26T15:05:23.884Z,1.70
2022-10-26T15:07:53.934Z,2.10
2022-10-26T15:10:38.238Z,2.20
2022-10-26T15:13:31.448Z,1.80
2022-10-26T15:16:09.727Z,2.30
2022-10-26T15:18:38.248Z,2.20
2022-10-26T15:21:23.485Z,2.30
2022-10-26T15:23:51.388Z,2.40
2022-10-26T15:26:20.905Z,2.50
2022-10-26T15:28:49.968Z,2.60
2022-10-26T15:31:17.015Z,2.30
2022-10-26T15:33:50.821Z,1.70
2022-10-26T15:36:18.682Z,2.10
2022-10-26T15:38:46.044Z,2.70
2022-10-26T15:41:23.415Z,2.00
2022-10-26T15:43:51.514Z,2.20
2022-10-26T15:46:19.577Z,2.70
2022-10-26T15:51:20.626Z,2.90
2022-10-26T15:53:47.883Z,2.30
2022-10-26T15:56:16.955Z,2.80
2022-10-26T15:58:44.222Z,2.90
2022-10-26T16:01:26.374Z,2.40
2022-10-26T16:03:54.398Z,2.90
2022-10-26T16:06:34.145Z,3.10
2022-10-26T16:09:03.238Z,2.30
2022-10-26T16:11:31.279Z,2.60
2022-10-26T16:14:01.240Z,2.10
2022-10-26T16:16:30.989Z,1.80
2022-10-26T16:19:25.623Z,1.60
2022-10-26T16:21:47.049Z,1.70
2022-10-26T16:24:14.088Z,1.90
2022-10-26T16:26:43.467Z,2.00
2022-10-26T16:29:10.581Z,1.90
2022-10-26T16:31:39.059Z,1.80
2022-10-26T16:34:06.473Z,1.30
2022-10-26T16:36:34.788Z,1.50
2022-10-26T16:45:11.984Z,1.80
2022-10-26T16:47:40.284Z,1.80
2022-10-26T16:50:08.768Z,1.80
2022-10-26T16:52:36.130Z,2.00
2022-10-26T16:55:03.914Z,1.80
2022-10-26T16:57:33.954Z,1.50
2022-10-26T17:00:01.294Z,1.80
2022-10-26T17:02:28.407Z,1.70
2022-10-26T17:29:55.283Z,2.30
2022-10-26T17:32:23.066Z,2.10
2022-10-26T17:34:50.013Z,1.90
2022-10-26T17:37:18.839Z,1.80
2022-10-26T17:39:46.050Z,2.40
2022-10-26T17:42:13.035Z,2.60
2022-10-26T17:44:39.882Z,2.40
2022-10-26T17:47:06.771Z,1.80
2022-10-26T17:49:36.007Z,2.20
2022-10-26T17:52:04.674Z,2.30
2022-10-26T17:54:32.196Z,2.90
2022-10-26T17:56:59.192Z,1.60
2022-10-26T17:59:26.516Z,2.00
2022-10-26T18:01:53.988Z,1.70
2022-10-26T18:04:23.299Z,2.10
2022-10-26T18:06:50.501Z,1.60
2022-10-26T18:09:17.854Z,1.80
2022-10-26T18:11:47.337Z,1.50
2022-10-26T18:14:15.763Z,1.80
2022-10-26T18:16:43.871Z,2.00
2022-10-26T18:19:11.203Z,1.80
2022-10-26T18:21:38.218Z,1.30
2022-10-26T18:24:06.823Z,1.50
2022-10-26T18:26:35.310Z,1.70
2022-10-26T18:29:02.989Z,1.60
2022-10-26T18:31:31.254Z,2.00
2022-10-26T18:34:02.112Z,1.70
2022-10-26T18:36:30.352Z,2.00
2022-10-26T18:38:58.512Z,1.60
2022-10-26T18:41:25.575Z,1.60
2022-10-26T18:43:54.248Z,1.50
2022-10-26T18:46:28.287Z,1.80
2022-10-26T18:48:56.133Z,1.60
2022-10-26T18:51:25.394Z,2.10
2022-10-26T18:53:52.581Z,2.40
2022-10-26T18:56:21.500Z,2.00
2022-10-26T18:58:50.450Z,2.00
2022-10-26T19:01:22.536Z,1.60
2022-10-26T19:03:54.138Z,1.40
2022-10-26T19:12:27.652Z,2.00
2022-10-26T19:14:54.853Z,1.60
2022-10-26T19:17:23.131Z,1.80
2022-10-26T19:19:50.516Z,1.80
2022-10-26T19:22:17.938Z,1.90
2022-10-26T19:24:47.648Z,1.80
2022-10-26T19:27:14.998Z,1.60
2022-10-26T19:29:42.561Z,1.60
2022-10-26T19:32:09.544Z,1.40
2022-10-26T19:34:36.511Z,1.70
2022-10-26T19:37:05.324Z,1.80
2022-10-26T19:39:32.385Z,1.80
2022-10-26T19:41:59.352Z,1.70
2022-10-26T19:44:26.931Z,1.90
2022-10-26T19:46:54.212Z,2.20
2022-10-26T19:49:21.400Z,1.30
2022-10-26T19:51:48.372Z,1.60
2022-10-26T19:54:15.289Z,1.70
2022-10-26T19:56:43.470Z,2.60
2022-10-26T19:59:10.564Z,1.40
2022-10-26T20:01:39.035Z,1.80
2022-10-26T20:04:06.743Z,2.00
2022-10-26T20:06:33.759Z,2.00
2022-10-26T20:09:02.350Z,2.10
2022-10-26T20:11:32.619Z,1.30
2022-10-26T20:14:00.037Z,1.60
2022-10-26T20:16:27.954Z,1.60
2022-10-26T20:18:55.218Z,1.70
2022-10-26T20:21:22.416Z,2.00
2022-10-26T20:23:49.462Z,1.90
2022-10-26T20:26:19.724Z,2.10
2022-10-26T20:28:48.918Z,2.10
2022-10-26T20:31:15.792Z,2.00
2022-10-26T20:33:42.908Z,1.70
2022-10-26T20:36:10.163Z,1.70
2022-10-26T20:38:40.232Z,1.70
2022-10-26T20:41:10.382Z,2.20
2022-10-26T20:43:39.509Z,1.90
2022-10-26T20:46:10.074Z,2.30
2022-10-26T20:48:38.959Z,2.30
2022-10-26T20:51:15.295Z,2.50
2022-10-26T20:54:21.711Z,2.40
2022-10-26T20:56:48.856Z,1.50
2022-10-26T20:59:26.576Z,1.70
2022-10-26T21:01:53.561Z,1.70
2022-10-26T21:04:20.581Z,2.00
2022-10-26T21:06:48.482Z,2.10
2022-10-26T21:09:15.585Z,2.40
2022-10-26T21:11:43.144Z,2.30
2022-10-26T21:14:11.994Z,2.40
2022-10-26T21:16:42.022Z,2.20
2022-10-26T21:19:09.323Z,2.00
2022-10-26T21:21:36.925Z,1.70
2022-10-26T21:24:04.245Z,1.90
2022-10-26T21:26:32.203Z,2.30
2022-10-26T21:28:59.161Z,2.60
2022-10-26T21:31:26.554Z,2.10
2022-10-26T21:33:53.682Z,2.70
2022-10-26T21:36:20.957Z,2.20
2022-10-26T21:38:47.798Z,2.00
2022-10-26T21:43:49.088Z,2.00
2022-10-26T21:46:16.847Z,2.10
2022-10-26T21:48:44.898Z,2.60
2022-10-26T21:51:12.979Z,2.90
2022-10-26T21:53:40.479Z,2.80
2022-10-26T21:56:09.948Z,2.90
2022-10-26T21:58:36.871Z,2.80
2022-10-26T22:01:07.326Z,2.40
2022-10-26T22:03:34.676Z,2.00
2022-10-26T22:06:02.205Z,1.80
2022-10-26T22:08:30.052Z,2.30
2022-10-26T22:10:56.978Z,2.60
2022-10-26T22:13:26.124Z,2.80
2022-10-26T22:16:09.947Z,2.80
2022-10-26T22:18:41.890Z,2.40
2022-10-26T22:21:11.519Z,3.20
2022-10-26T22:23:43.688Z,1.80
2022-10-26T22:26:15.372Z,2.20
2022-10-26T22:28:43.207Z,2.50
2022-10-26T22:31:13.621Z,2.40
2022-10-26T22:33:41.367Z,2.30
2022-10-26T22:36:12.923Z,3.10
2022-10-26T22:38:41.919Z,2.60
2022-10-26T22:41:09.277Z,2.60
2022-10-26T22:43:36.441Z,2.60
2022-10-26T22:46:08.446Z,2.20
2022-10-26T22:48:37.269Z,1.90
2022-10-26T22:51:11.390Z,2.30
2022-10-26T22:53:38.948Z,2.10
2022-10-26T22:56:07.498Z,2.20
2022-10-26T22:58:35.512Z,2.70
2022-10-26T23:01:10.613Z,2.20
2022-10-26T23:03:38.105Z,1.70
2022-10-26T23:06:09.667Z,2.40
2022-10-26T23:08:38.330Z,2.60
2022-10-26T23:11:07.059Z,2.50
2022-10-26T23:13:34.145Z,2.80
2022-10-26T23:16:09.251Z,2.40
2022-10-26T23:18:36.383Z,2.20
2022-10-26T23:21:05.952Z,2.50
2022-10-26T23:23:34.824Z,2.70
2022-10-26T23:26:03.072Z,2.70
2022-10-26T23:30:58.252Z,2.90
2022-10-26T23:33:26.208Z,2.70
2022-10-26T23:35:53.482Z,2.80
2022-10-26T23:38:20.879Z,2.20
2022-10-26T23:40:51.985Z,2.50
2022-10-26T23:43:19.279Z,2.50
2022-10-26T23:45:46.674Z,3.00
2022-10-26T23:48:13.943Z,2.80
2022-10-26T23:50:43.473Z,3.00
2022-10-26T23:53:11.599Z,2.90
2022-10-26T23:55:40.350Z,2.50
2022-10-26T23:58:07.679Z,2.60
